Whitethorn, CA

9:24 PM PDT on July 01, 2015 (GMT -0700)
RAWS | | Change Station
CLOSE
Current Station
Personal Weather Station
Location: Redway, CA
Elevation: 476 ft
Nearby Weather Stations

Elev 476 ft 40.14 °N, 123.82 °W | Updated 56 minutes ago

Mostly Cloudy
Mostly Cloudy
82 °F
Feels Like 80 °F
N
3
Wind Variable Wind from WNW
Gusts 6.0 mph

Today
High -- | Low -- °F
--% Chance of Precip.
Yesterday
High -- | Low -- °F
Precip. -- in
5:51 AM 8:49 PM
Full, 100% visible
Pressure 29.99 in
Visibility 2.5 miles
Clouds Overcast 300 ft
Heat Index 80 °F
Dew Point 46 °F
Humidity 28%
Rainfall in
Snow Depth Not available.
UV 0 out of 12
Pollen 6.30 out of 12
Air Quality Not available.
Flu Activity Not available.
METAR KFOT 020415Z AUTO 31005KT 2 1/2SM OVC003 12/12 A2999 RMK AO1

More Conditions Fewer Conditions

Pressure 29.99 in
Visibility 2.5 miles
Clouds Overcast 300 ft
Heat Index 80 °F
Dew Point 46 °F
Humidity 28%
Rainfall in
Snow Depth Not available.
UV 0 out of 12
Pollen 6.30 out of 12
Air Quality Not available.
Flu Activity Not available.
METAR KFOT 020415Z AUTO 31005KT 2 1/2SM OVC003 12/12 A2999 RMK AO1

More Conditions Fewer Conditions

10-Day Weather Forecast

×

Almanac

Astronomy

Jul. 01, 2015 Rise Set
Actual Time
Civil Twilight
Nautical Twilight
Astronomical Twilight
Moon
Length of Visible Light
Length of Day
Tomorrow will be .
, % of the Moon is Illuminated

Today's Extremes

State Highs State Lows

Community

WunderPhotos

Upload Photos

1,834,412 photos uploaded!

WunderBlogs® & News

Nearby

Air Quality

  Air Quality AQ Index Pollutant
Not available.

Snow Depth

Station Depth Elevation

Earthquake Activity

City Distance Mag. Time & Date
Minimum magnitude displayed is 2.5.

Coastal Water Temperatures

Place Temperature

Stations

Nearby Weather Stations

Station Location Temp. Windchill Dew Point Humidity Wind Precip. Elev Updated Type